Time;durP1;ratioP1;P1;durP2;ratioP2;P2;SDS_P1;SDS_P2;PMS_P1;PMS_P2;Temp;Humidity;BMP_temperature;BMP_pressure;BME280_temperature;BME280_humidity;BME280_pressure;Samples;Min_cycle;Max_cycle;Signal;HPM_P1;HPM_P2
2023/05/19 00:01:51;;;;;;;7.63;3.92;;;;;;;11.80;81.68;102670.06;4962069;28;20070;-72
2023/05/19 00:04:18;;;;;;;11.82;3.90;;;;;;;11.83;80.01;102669.00;4937587;28;20111;-72
2023/05/19 00:06:49;;;;;;;7.93;3.17;;;;;;;11.81;79.22;102673.53;4958806;28;20051;-72
2023/05/19 00:09:16;;;;;;;8.80;3.58;;;;;;;11.77;82.94;102667.63;4957985;28;20551;-74
2023/05/19 00:11:43;;;;;;;8.75;3.75;;;;;;;11.74;82.85;102661.75;4971019;28;20059;-74
2023/05/19 00:14:10;;;;;;;9.65;3.30;;;;;;;11.72;82.88;102664.50;4960890;28;20054;-74
2023/05/19 00:16:37;;;;;;;10.65;4.00;;;;;;;11.75;83.11;102671.34;4967680;28;20565;-74
2023/05/19 00:19:05;;;;;;;9.30;3.58;;;;;;;11.70;86.30;102669.00;4957287;28;20106;-74
2023/05/19 00:21:32;;;;;;;9.23;3.30;;;;;;;11.70;84.33;102665.56;4964189;28;20086;-74
2023/05/19 00:23:58;;;;;;;8.70;3.70;;;;;;;11.71;85.52;102664.63;4966990;28;20070;-74
2023/05/19 00:26:26;;;;;;;12.55;3.72;;;;;;;11.66;87.40;102663.16;4961684;28;20061;-74
2023/05/19 00:28:53;;;;;;;8.15;3.60;;;;;;;11.63;86.88;102667.78;4980241;28;20551;-73
2023/05/19 00:31:19;;;;;;;9.88;3.67;;;;;;;11.64;86.50;102666.81;4977940;28;20046;-74
2023/05/19 00:33:46;;;;;;;12.90;4.00;;;;;;;11.61;84.99;102656.53;4976145;28;20065;-73
2023/05/19 00:36:12;;;;;;;9.25;3.50;;;;;;;11.59;86.44;102655.81;4944258;28;20114;-74
2023/05/19 00:38:39;;;;;;;10.07;3.45;;;;;;;11.64;86.22;102657.16;4967161;28;20058;-74
2023/05/19 00:41:06;;;;;;;6.65;3.42;;;;;;;11.62;86.38;102652.94;4959837;28;20079;-74
2023/05/19 00:43:35;;;;;;;9.60;3.50;;;;;;;11.65;85.59;102658.00;4957204;28;20585;-74
2023/05/19 00:46:02;;;;;;;11.45;4.38;;;;;;;11.55;88.62;102644.66;4966535;28;20055;-73
2023/05/19 00:48:29;;;;;;;11.38;4.18;;;;;;;11.58;87.63;102643.59;4956948;28;20117;-73
2023/05/19 00:51:02;;;;;;;8.88;2.97;;;;;;;11.61;85.01;102638.97;4966379;28;20058;-74
2023/05/19 00:53:30;;;;;;;9.18;3.50;;;;;;;11.60;87.94;102642.56;4945630;28;20065;-74
2023/05/19 00:55:58;;;;;;;11.43;4.00;;;;;;;11.61;87.89;102632.88;4947698;28;20070;-73
2023/05/19 00:58:29;;;;;;;10.00;4.00;;;;;;;11.57;89.14;102644.56;4952128;28;20507;-73
2023/05/19 01:01:02;;;;;;;9.63;4.43;;;;;;;11.54;90.45;102639.50;4941718;28;20055;-73
2023/05/19 01:03:34;;;;;;;9.48;3.40;;;;;;;11.44;90.74;102640.16;4965390;28;20498;-72
2023/05/19 01:06:05;;;;;;;11.48;3.80;;;;;;;11.43;89.12;102642.91;4960828;28;20169;-74
2023/05/19 01:08:34;;;;;;;7.13;3.10;;;;;;;11.49;86.27;102645.09;4962588;28;20062;-74
2023/05/19 01:11:01;;;;;;;7.70;3.85;;;;;;;11.40;90.39;102646.56;4943191;28;20105;-71
2023/05/19 01:13:28;;;;;;;9.20;4.18;;;;;;;11.38;92.62;102642.38;4945517;28;20657;-72
2023/05/19 01:16:06;;;;;;;7.05;3.50;;;;;;;11.40;90.94;102648.38;4958833;28;20070;-72
2023/05/19 01:18:50;;;;;;;6.72;3.50;;;;;;;11.35;92.61;102642.56;4941666;28;20066;-72
2023/05/19 01:21:43;;;;;;;8.18;3.72;;;;;;;11.31;92.56;102646.38;4948337;28;20085;-71
2023/05/19 01:24:34;;;;;;;10.85;4.05;;;;;;;11.30;93.04;102648.16;4931872;28;20047;-72
2023/05/19 01:27:34;;;;;;;7.07;3.60;;;;;;;11.26;93.59;102644.06;4956604;28;20562;-72
2023/05/19 01:30:24;;;;;;;11.35;4.35;;;;;;;11.26;95.33;102638.81;4956953;28;20050;-72
2023/05/19 01:32:59;;;;;;;9.43;3.92;;;;;;;11.18;96.15;102647.22;4978285;28;20089;-72
2023/05/19 01:35:28;;;;;;;9.73;4.53;;;;;;;11.08;97.33;102646.19;4953794;28;20061;-72
2023/05/19 01:37:57;;;;;;;9.02;3.90;;;;;;;11.09;96.16;102650.47;4957166;28;20164;-72
2023/05/19 01:40:25;;;;;;;9.90;4.00;;;;;;;11.12;96.82;102654.69;4954877;28;20459;-72
2023/05/19 01:42:54;;;;;;;12.65;4.30;;;;;;;11.02;98.23;102651.84;4976632;28;20059;-73
2023/05/19 01:45:24;;;;;;;11.02;4.40;;;;;;;10.98;100.00;102645.97;4963869;28;20065;-72
2023/05/19 01:47:55;;;;;;;10.55;4.32;;;;;;;10.98;98.74;102642.50;4949849;28;20051;-72
2023/05/19 01:50:22;;;;;;;9.05;4.22;;;;;;;10.91;100.00;102649.94;4948951;28;20078;-72
2023/05/19 01:52:49;;;;;;;11.00;4.20;;;;;;;10.89;100.00;102644.78;4958675;28;20137;-72
2023/05/19 01:55:16;;;;;;;8.90;3.80;;;;;;;10.84;100.00;102643.44;4940947;29;20055;-72
2023/05/19 01:58:05;;;;;;;9.88;4.03;;;;;;;10.85;100.00;102643.31;4946310;28;20570;-72
2023/05/19 02:00:45;;;;;;;8.27;4.22;;;;;;;10.81;100.00;102639.22;4940901;28;20511;-73
2023/05/19 02:03:24;;;;;;;11.70;4.30;;;;;;;10.85;100.00;102637.25;4961257;28;20478;-72
2023/05/19 02:06:02;;;;;;;7.68;3.83;;;;;;;10.85;100.00;102639.84;4966111;28;20098;-72
2023/05/19 02:08:38;;;;;;;14.68;4.30;;;;;;;10.84;100.00;102635.56;4955726;28;20050;-72
2023/05/19 02:11:18;;;;;;;7.85;4.13;;;;;;;10.82;100.00;102635.66;4959818;28;20471;-72
2023/05/19 02:13:50;;;;;;;14.10;4.45;;;;;;;10.78;100.00;102636.81;4957618;28;20136;-72
2023/05/19 02:16:17;;;;;;;10.98;4.20;;;;;;;10.75;100.00;102631.75;4938692;28;20059;-72
2023/05/19 02:18:45;;;;;;;9.52;4.57;;;;;;;10.72;100.00;102633.75;4979722;28;20132;-72
2023/05/19 02:21:12;;;;;;;14.48;4.78;;;;;;;10.64;100.00;102623.75;4957573;28;20065;-75
2023/05/19 02:23:40;;;;;;;9.88;4.00;;;;;;;10.68;100.00;102625.25;4941026;28;20065;-71
2023/05/19 02:26:07;;;;;;;7.57;3.60;;;;;;;10.65;100.00;102623.66;4960771;28;20051;-72
2023/05/19 02:28:35;;;;;;;13.75;4.93;;;;;;;10.65;100.00;102626.28;4944570;28;20085;-72
2023/05/19 02:31:04;;;;;;;14.23;4.40;;;;;;;10.60;100.00;102617.88;4960684;28;20054;-71
2023/05/19 02:33:30;;;;;;;;;;;;;;;10.62;100.00;102618.66;4965159;28;20142;-72
2023/05/19 02:35:57;;;;;;;9.43;4.60;;;;;;;10.55;100.00;102627.84;4967248;28;20378;-71
2023/05/19 02:38:23;;;;;;;9.90;4.35;;;;;;;10.51;100.00;102615.06;4941177;28;20483;-72
2023/05/19 02:40:54;;;;;;;10.63;4.57;;;;;;;10.52;100.00;102620.19;4965795;28;20055;-72
2023/05/19 02:43:20;;;;;;;13.25;4.47;;;;;;;10.52;100.00;102614.94;4965548;28;20051;-71
2023/05/19 02:45:47;;;;;;;9.70;4.20;;;;;;;10.52;100.00;102612.31;4940534;28;20073;-74
2023/05/19 02:48:14;;;;;;;13.00;4.38;;;;;;;10.48;100.00;102610.84;4956904;28;20282;-74
2023/05/19 02:50:41;;;;;;;10.95;4.47;;;;;;;10.47;100.00;102606.53;4957671;28;20059;-72
2023/05/19 02:53:08;;;;;;;10.27;4.65;;;;;;;10.45;100.00;102609.25;4949159;28;20137;-73
2023/05/19 02:55:35;;;;;;;9.63;4.88;;;;;;;10.40;100.00;102600.84;4958355;28;20211;-72
2023/05/19 02:58:01;;;;;;;13.98;4.60;;;;;;;10.40;100.00;102611.34;4948522;28;20086;-73
2023/05/19 03:00:28;;;;;;;13.98;4.97;;;;;;;10.33;100.00;102604.84;4961966;28;20043;-73
2023/05/19 03:02:55;;;;;;;13.55;4.80;;;;;;;10.35;100.00;102609.94;4943602;28;20125;-73
2023/05/19 03:05:21;;;;;;;12.30;4.68;;;;;;;10.29;100.00;102606.78;4951586;28;20551;-73
2023/05/19 03:07:48;;;;;;;7.75;4.70;;;;;;;10.26;100.00;102606.97;4955226;28;20101;-73
2023/05/19 03:10:14;;;;;;;9.43;4.65;;;;;;;10.21;100.00;102601.19;4969260;28;20065;-72
2023/05/19 03:12:41;;;;;;;10.90;4.85;;;;;;;10.23;100.00;102603.69;4967650;28;20057;-72
2023/05/19 03:15:08;;;;;;;10.35;4.53;;;;;;;10.18;100.00;102605.81;4946306;28;20882;-73
2023/05/19 03:17:35;;;;;;;13.07;5.28;;;;;;;10.17;100.00;102611.97;4964062;28;20074;-73
2023/05/19 03:20:01;;;;;;;13.13;5.22;;;;;;;10.15;100.00;102604.19;4962248;28;20050;-74
2023/05/19 03:22:28;;;;;;;11.82;4.97;;;;;;;10.14;100.00;102609.56;4967876;28;20129;-73
2023/05/19 03:24:57;;;;;;;13.63;5.13;;;;;;;10.10;100.00;102609.75;4961615;28;20062;-74
2023/05/19 03:27:23;;;;;;;9.98;4.65;;;;;;;10.10;100.00;102608.91;4970094;28;20088;-74
2023/05/19 03:29:51;;;;;;;9.70;5.28;;;;;;;10.07;100.00;102606.47;4974967;28;20051;-74
2023/05/19 03:32:18;;;;;;;14.25;4.63;;;;;;;10.05;100.00;102606.56;4952206;28;20109;-74
2023/05/19 03:34:44;;;;;;;11.48;4.95;;;;;;;10.05;100.00;102603.13;4998393;28;20035;-74
2023/05/19 03:37:11;;;;;;;16.33;6.82;;;;;;;10.04;100.00;102604.06;4977539;28;20065;-74
2023/05/19 03:39:38;;;;;;;8.93;4.80;;;;;;;10.07;100.00;102603.84;4959679;28;20106;-74
2023/05/19 03:42:05;;;;;;;13.48;5.78;;;;;;;10.06;100.00;102604.81;4962344;28;20059;-74
2023/05/19 03:44:31;;;;;;;15.02;5.57;;;;;;;10.04;100.00;102604.06;4965940;28;20050;-74
2023/05/19 03:46:58;;;;;;;9.85;5.10;;;;;;;10.05;100.00;102611.00;4959314;28;20054;-74
2023/05/19 03:49:24;;;;;;;11.98;5.53;;;;;;;10.07;100.00;102614.34;4967975;28;20047;-74
2023/05/19 03:51:51;;;;;;;10.38;4.95;;;;;;;10.04;100.00;102607.53;4951082;28;20063;-73
2023/05/19 03:54:17;;;;;;;11.13;5.43;;;;;;;10.10;100.00;102604.50;4961733;28;20054;-73
2023/05/19 03:56:44;;;;;;;11.77;4.82;;;;;;;10.07;100.00;102614.34;4968162;28;20148;-74
2023/05/19 03:59:11;;;;;;;12.20;5.28;;;;;;;10.08;100.00;102616.03;4958386;28;20062;-73
2023/05/19 04:01:38;;;;;;;10.65;5.65;;;;;;;10.04;100.00;102612.78;4952221;28;20116;-73
2023/05/19 04:04:04;;;;;;;10.20;5.07;;;;;;;10.07;100.00;102614.34;4980843;28;20055;-74
2023/05/19 04:06:32;;;;;;;12.23;5.68;;;;;;;10.07;100.00;102624.84;4965902;28;20051;-73
2023/05/19 04:08:59;;;;;;;10.17;4.77;;;;;;;9.98;100.00;102621.03;4953948;28;20063;-73
2023/05/19 04:11:25;;;;;;;10.05;5.50;;;;;;;9.97;100.00;102629.00;4955247;28;20062;-73
2023/05/19 04:13:54;;;;;;;9.07;5.38;;;;;;;9.99;100.00;102629.75;4953970;28;20058;-73
2023/05/19 04:16:21;;;;;;;9.52;4.60;;;;;;;10.04;100.00;102623.25;4939534;29;20059;-74
2023/05/19 04:18:48;;;;;;;13.15;5.13;;;;;;;10.02;100.00;102629.56;4963192;28;20601;-73
2023/05/19 04:21:14;;;;;;;10.15;5.80;;;;;;;10.03;100.00;102632.06;4963485;28;20051;-73
2023/05/19 04:23:41;;;;;;;10.77;5.43;;;;;;;10.00;100.00;102626.19;4957885;28;20051;-73
2023/05/19 04:26:07;;;;;;;14.15;5.78;;;;;;;9.95;100.00;102621.22;4958173;28;20420;-73
2023/05/19 04:28:37;;;;;;;11.75;6.20;;;;;;;9.97;100.00;102626.38;4944052;28;20042;-73
2023/05/19 04:31:09;;;;;;;10.38;5.72;;;;;;;9.99;100.00;102625.31;4952539;28;20410;-73
2023/05/19 04:33:36;;;;;;;10.00;5.28;;;;;;;10.00;100.00;102626.19;4962641;28;20054;-73
2023/05/19 04:36:04;;;;;;;10.80;5.43;;;;;;;10.06;100.00;102628.41;4949038;29;20063;-73
2023/05/19 04:38:30;;;;;;;9.10;5.30;;;;;;;10.04;100.00;102622.44;4975128;28;20578;-73
2023/05/19 04:41:00;;;;;;;13.90;6.20;;;;;;;10.03;100.00;102623.34;4957782;28;20078;-73
2023/05/19 04:43:27;;;;;;;15.18;6.65;;;;;;;10.00;100.00;102616.53;4952060;28;20050;-74
2023/05/19 04:45:54;;;;;;;12.35;5.47;;;;;;;10.04;100.00;102612.78;4965583;28;20118;-74
2023/05/19 04:48:23;;;;;;;8.57;5.10;;;;;;;10.06;100.00;102616.13;4940072;28;20577;-73
2023/05/19 04:50:50;;;;;;;12.25;6.25;;;;;;;10.08;100.00;102613.41;4960887;28;20076;-73
2023/05/19 04:53:17;;;;;;;11.60;5.28;;;;;;;10.07;100.00;102609.09;4960034;28;20077;-73
2023/05/19 04:55:44;;;;;;;10.48;5.85;;;;;;;10.14;100.00;102612.19;4964634;28;20078;-72
2023/05/19 04:58:10;;;;;;;13.48;6.55;;;;;;;10.11;100.00;102613.22;4961750;28;20546;-72
2023/05/19 05:00:37;;;;;;;12.23;6.05;;;;;;;10.11;100.00;102618.44;4959065;28;20050;-74
2023/05/19 05:03:05;;;;;;;15.05;5.88;;;;;;;10.15;100.00;102614.69;4975004;28;20038;-73
2023/05/19 05:05:31;;;;;;;14.48;6.07;;;;;;;10.17;100.00;102615.44;4997081;28;20063;-73
2023/05/19 05:07:58;;;;;;;13.60;5.53;;;;;;;10.18;100.00;102624.16;4963872;28;20502;-73
2023/05/19 05:10:25;;;;;;;10.43;6.25;;;;;;;10.19;100.00;102615.34;4955400;28;20559;-73
2023/05/19 05:12:52;;;;;;;13.50;5.60;;;;;;;10.22;100.00;102623.00;4980021;28;20478;-74
2023/05/19 05:15:19;;;;;;;11.73;4.80;;;;;;;10.24;100.00;102618.50;4945939;28;20054;-73
2023/05/19 05:17:46;;;;;;;10.73;6.00;;;;;;;10.32;100.00;102624.13;4969036;28;20109;-73
2023/05/19 05:20:13;;;;;;;10.45;5.70;;;;;;;10.34;100.00;102626.66;4956136;28;20055;-73
2023/05/19 05:22:40;;;;;;;13.80;5.80;;;;;;;10.36;100.00;102630.00;4960506;28;20061;-74
2023/05/19 05:25:08;;;;;;;12.30;6.75;;;;;;;10.40;100.00;102632.31;4964284;28;20064;-73
2023/05/19 05:27:35;;;;;;;10.43;5.30;;;;;;;10.43;100.00;102628.69;4972818;28;20074;-73
2023/05/19 05:30:02;;;;;;;14.00;5.25;;;;;;;10.44;100.00;102628.56;4964206;28;20050;-74
2023/05/19 05:32:28;;;;;;;11.63;6.60;;;;;;;10.49;100.00;102639.59;4956208;28;20418;-73
2023/05/19 05:34:55;;;;;;;11.85;6.53;;;;;;;10.52;100.00;102635.09;4952482;28;20772;-74
2023/05/19 05:37:22;;;;;;;12.50;5.63;;;;;;;10.56;100.00;102636.56;4970507;28;20046;-74
2023/05/19 05:39:49;;;;;;;13.82;6.18;;;;;;;10.60;100.00;102633.63;4946502;28;20509;-73
2023/05/19 05:42:15;;;;;;;12.10;6.30;;;;;;;10.62;100.00;102638.78;4958753;28;20047;-74
2023/05/19 05:44:41;;;;;;;9.57;5.30;;;;;;;10.64;100.00;102637.75;4940355;28;20082;-73
2023/05/19 05:47:10;;;;;;;11.10;5.30;;;;;;;10.67;100.00;102636.69;4967519;28;20058;-73
2023/05/19 05:49:37;;;;;;;;;;;;;;;10.74;100.00;102639.72;4953116;28;20050;-73
2023/05/19 05:52:06;;;;;;;11.88;4.97;;;;;;;10.76;100.00;102632.59;4970715;28;19933;-71
2023/05/19 05:54:34;;;;;;;11.13;5.90;;;;;;;10.80;100.00;102642.81;4943485;28;20047;-73
2023/05/19 05:57:01;;;;;;;10.70;4.82;;;;;;;10.83;100.00;102639.13;4961547;28;20082;-74
2023/05/19 05:59:27;;;;;;;9.82;5.20;;;;;;;10.84;100.00;102635.56;4961974;28;20058;-72
2023/05/19 06:01:54;;;;;;;11.38;5.53;;;;;;;10.89;100.00;102639.53;4952705;28;20105;-72
2023/05/19 06:04:20;;;;;;;10.07;5.32;;;;;;;10.92;100.00;102640.28;4949580;28;20054;-71
2023/05/19 06:06:47;;;;;;;12.63;5.68;;;;;;;10.96;100.00;102637.34;4959804;28;20043;-72
2023/05/19 06:09:14;;;;;;;11.68;5.30;;;;;;;10.98;100.00;102630.22;4959368;28;20051;-71
2023/05/19 06:11:40;;;;;;;11.27;5.00;;;;;;;11.00;100.00;102633.56;4937007;28;20478;-71
2023/05/19 06:14:07;;;;;;;9.15;4.93;;;;;;;11.02;100.00;102634.31;4944218;28;20058;-72
2023/05/19 06:16:33;;;;;;;15.35;5.68;;;;;;;11.06;100.00;102633.16;4956231;28;20079;-71
2023/05/19 06:19:00;;;;;;;11.55;6.22;;;;;;;11.13;100.00;102624.84;4949237;28;20337;-71
2023/05/19 06:21:26;;;;;;;11.20;4.80;;;;;;;11.17;100.00;102629.81;4964090;28;20055;-71
2023/05/19 06:23:53;;;;;;;8.50;4.88;;;;;;;11.24;100.00;102631.03;4957370;28;20058;-71
2023/05/19 06:26:20;;;;;;;12.35;6.20;;;;;;;11.31;100.00;102639.34;4976626;28;20117;-72
2023/05/19 06:28:46;;;;;;;10.52;6.15;;;;;;;11.32;100.00;102627.88;4953426;28;20755;-72
2023/05/19 06:31:13;;;;;;;17.35;5.53;;;;;;;11.37;100.00;102632.78;4962170;28;20043;-73
2023/05/19 06:33:40;;;;;;;9.52;5.40;;;;;;;11.43;100.00;102632.41;4965352;28;20054;-73
2023/05/19 06:36:08;;;;;;;11.23;6.65;;;;;;;11.46;100.00;102633.00;4976992;28;20062;-73
2023/05/19 06:38:35;;;;;;;14.80;5.85;;;;;;;11.48;100.00;102631.09;4954405;28;20055;-72
2023/05/19 06:41:01;;;;;;;14.93;6.45;;;;;;;11.54;100.00;102629.84;4946887;28;20066;-73
2023/05/19 06:43:29;;;;;;;8.98;5.22;;;;;;;11.56;100.00;102625.31;4953798;28;20117;-72
2023/05/19 06:45:55;;;;;;;16.52;5.30;;;;;;;11.69;99.41;102630.53;4950972;28;20499;-72
2023/05/19 06:48:22;;;;;;;13.73;4.82;;;;;;;11.75;99.17;102621.38;4972140;28;20476;-71
2023/05/19 06:50:49;;;;;;;10.57;5.60;;;;;;;11.81;100.00;102627.03;4979448;28;20729;-71
2023/05/19 06:53:18;;;;;;;13.77;5.90;;;;;;;11.90;99.17;102622.06;4941135;28;20050;-71
2023/05/19 06:55:45;;;;;;;13.50;5.30;;;;;;;11.95;100.00;102630.50;4956588;28;20055;-72
2023/05/19 06:58:25;;;;;;;11.70;4.85;;;;;;;12.00;100.00;102633.63;4953007;28;20059;-71
2023/05/19 07:00:52;;;;;;;14.05;5.07;;;;;;;12.05;99.28;102634.13;4966049;28;20050;-73
2023/05/19 07:03:19;;;;;;;12.55;4.80;;;;;;;12.11;99.36;102624.94;4958975;28;20078;-73
2023/05/19 07:05:46;;;;;;;12.13;5.55;;;;;;;12.17;96.08;102621.84;4965061;28;20172;-71
2023/05/19 07:08:12;;;;;;;12.68;4.68;;;;;;;12.23;94.66;102622.28;4956283;28;20095;-73
2023/05/19 07:10:39;;;;;;;11.20;4.50;;;;;;;12.29;95.33;102623.59;4954694;28;20492;-71
2023/05/19 07:13:05;;;;;;;11.57;5.05;;;;;;;12.35;94.43;102631.03;4947665;28;20097;-71
2023/05/19 07:15:32;;;;;;;11.50;5.60;;;;;;;12.41;94.26;102632.38;4969735;28;20061;-73
2023/05/19 07:17:59;;;;;;;8.10;4.90;;;;;;;12.44;94.13;102632.13;4963156;28;20392;-71
2023/05/19 07:20:25;;;;;;;13.32;5.75;;;;;;;12.49;94.13;102632.66;4957641;28;20050;-73
2023/05/19 07:22:52;;;;;;;10.48;5.45;;;;;;;12.54;94.17;102632.28;4957151;28;20419;-74
2023/05/19 07:25:19;;;;;;;12.82;5.10;;;;;;;12.56;94.82;102625.94;4952599;28;20101;-72
2023/05/19 07:27:45;;;;;;;13.32;4.72;;;;;;;12.63;91.78;102631.63;4958286;28;20050;-72
2023/05/19 07:30:12;;;;;;;7.22;4.10;;;;;;;12.72;90.46;102637.97;4947517;28;20142;-73
2023/05/19 07:32:38;;;;;;;11.38;5.43;;;;;;;12.79;93.17;102632.13;4949957;28;20109;-72
2023/05/19 07:35:05;;;;;;;9.50;4.82;;;;;;;12.86;92.48;102641.25;4959630;28;20524;-73
2023/05/19 07:37:32;;;;;;;11.75;4.05;;;;;;;12.98;90.74;102636.00;4945942;28;20079;-72
2023/05/19 07:39:58;;;;;;;10.85;4.90;;;;;;;13.04;94.15;102630.25;4942993;28;20411;-72
2023/05/19 07:42:25;;;;;;;10.55;5.07;;;;;;;13.10;93.00;102629.78;4958717;28;20054;-73
2023/05/19 07:44:52;;;;;;;8.70;4.20;;;;;;;13.22;87.76;102633.25;4945906;28;20055;-72
2023/05/19 07:47:18;;;;;;;11.65;4.75;;;;;;;13.29;88.07;102631.81;4968928;28;20447;-72
2023/05/19 07:49:46;;;;;;;11.15;4.63;;;;;;;13.37;83.44;102626.81;4954392;28;20074;-72
2023/05/19 07:52:17;;;;;;;8.55;4.43;;;;;;;13.45;82.91;102619.13;4960643;28;20058;-73
2023/05/19 07:54:44;;;;;;;;;;;;;;;13.54;84.53;102625.47;4951577;28;20428;-72
2023/05/19 07:57:10;;;;;;;8.57;3.45;;;;;;;13.67;82.77;102624.50;4968566;28;20010;-72
2023/05/19 07:59:37;;;;;;;7.45;3.92;;;;;;;13.79;84.01;102624.34;4948046;28;20463;-72
2023/05/19 08:02:04;;;;;;;14.25;4.25;;;;;;;13.87;83.09;102623.72;4946811;28;20102;-72
2023/05/19 08:04:31;;;;;;;7.82;3.05;;;;;;;14.01;80.15;102618.19;4945481;28;20542;-73
2023/05/19 08:06:58;;;;;;;9.32;3.80;;;;;;;14.11;80.39;102618.25;4951588;28;20450;-73
2023/05/19 08:09:25;;;;;;;8.30;3.72;;;;;;;14.18;79.76;102610.69;4968171;28;20425;-72
2023/05/19 08:11:52;;;;;;;10.27;4.60;;;;;;;14.26;80.72;102610.88;4952350;28;20058;-73
2023/05/19 08:14:21;;;;;;;11.20;4.00;;;;;;;14.31;80.35;102608.72;4951631;28;20046;-72
2023/05/19 08:16:48;;;;;;;9.95;3.97;;;;;;;14.38;79.50;102599.28;4961991;28;20463;-73
2023/05/19 08:19:15;;;;;;;10.73;3.70;;;;;;;14.54;79.25;102606.75;4943380;28;20070;-73
2023/05/19 08:21:42;;;;;;;10.30;3.95;;;;;;;14.65;77.46;102603.28;4941790;28;20057;-72
2023/05/19 08:24:08;;;;;;;10.15;3.17;;;;;;;14.95;75.34;102598.97;4956439;28;20063;-73
2023/05/19 08:26:35;;;;;;;7.93;3.35;;;;;;;15.22;70.65;102593.94;4950355;28;20114;-73
2023/05/19 08:29:03;;;;;;;8.73;3.33;;;;;;;15.71;71.75;102604.66;4945381;28;20119;-73
2023/05/19 08:31:30;;;;;;;9.32;2.95;;;;;;;16.08;67.23;102593.44;4949063;28;20559;-73
2023/05/19 08:33:56;;;;;;;8.73;3.33;;;;;;;16.46;67.83;102589.06;4955705;28;20174;-72
2023/05/19 08:36:23;;;;;;;9.57;4.13;;;;;;;16.82;66.15;102586.66;4951444;28;20130;-71
2023/05/19 08:38:50;;;;;;;9.00;3.85;;;;;;;17.20;63.52;102580.34;4945762;28;20133;-71
2023/05/19 08:41:16;;;;;;;11.02;3.40;;;;;;;17.56;63.01;102579.59;4941955;28;20039;-71
2023/05/19 08:43:44;;;;;;;9.23;3.25;;;;;;;17.90;60.33;102577.16;4965108;28;20118;-72
2023/05/19 08:46:13;;;;;;;8.90;2.90;;;;;;;18.19;58.12;102576.06;4951978;28;20058;-72
2023/05/19 08:48:41;;;;;;;9.98;2.65;;;;;;;18.52;57.63;102569.16;4962402;28;20058;-72
2023/05/19 08:51:26;;;;;;;;;;;;;;;18.83;56.92;102574.00;4963175;28;20055;-72
2023/05/19 08:53:59;;;;;;;10.10;2.80;;;;;;;19.14;55.94;102561.00;4938342;28;19925;-71
2023/05/19 08:56:26;;;;;;;8.15;2.45;;;;;;;19.39;55.77;102563.75;4951766;28;20082;-72
2023/05/19 08:58:55;;;;;;;10.48;2.85;;;;;;;19.65;54.28;102552.16;4959218;28;20097;-72
2023/05/19 09:01:22;;;;;;;8.75;2.92;;;;;;;19.89;52.79;102554.84;4967351;28;20051;-72
2023/05/19 09:03:50;;;;;;;9.05;3.00;;;;;;;20.08;50.88;102547.56;4938583;28;20529;-72
2023/05/19 09:06:17;;;;;;;7.05;2.38;;;;;;;20.26;49.34;102547.38;4967792;28;20070;-72
2023/05/19 09:08:44;;;;;;;6.30;2.42;;;;;;;20.46;49.66;102547.81;4962416;28;20511;-73
2023/05/19 09:11:10;;;;;;;9.77;2.35;;;;;;;20.71;48.80;102553.94;4951078;28;20132;-72
2023/05/19 09:13:37;;;;;;;9.35;2.45;;;;;;;20.92;48.68;102548.06;4954281;28;20085;-72
2023/05/19 09:16:04;;;;;;;7.20;2.53;;;;;;;21.11;47.02;102547.63;4954499;28;20074;-72
2023/05/19 09:18:31;;;;;;;8.18;2.40;;;;;;;21.23;46.74;102542.72;4960978;28;20539;-72
2023/05/19 09:21:01;;;;;;;10.00;2.35;;;;;;;21.27;46.22;102540.56;4941669;28;20063;-73
2023/05/19 09:23:32;;;;;;;8.63;2.35;;;;;;;21.43;45.07;102531.59;4965438;28;20562;-72
2023/05/19 09:26:03;;;;;;;10.95;2.42;;;;;;;21.58;45.98;102537.03;4958665;28;20106;-72
2023/05/19 09:28:34;;;;;;;8.70;2.20;;;;;;;21.64;44.44;102534.50;4952835;28;20058;-72
2023/05/19 09:31:03;;;;;;;9.95;2.50;;;;;;;21.50;43.22;102525.41;4963008;28;20062;-72
2023/05/19 09:33:32;;;;;;;8.02;2.50;;;;;;;21.69;44.07;102526.75;4962862;28;20587;-72
2023/05/19 09:35:59;;;;;;;4.95;1.55;;;;;;;21.79;44.72;102531.84;4965490;28;20051;-72
2023/05/19 09:38:26;;;;;;;7.70;1.98;;;;;;;21.99;44.05;102524.16;4940182;28;20520;-72
2023/05/19 09:40:56;;;;;;;4.75;1.67;;;;;;;22.11;43.04;102520.06;4949880;28;20447;-72
2023/05/19 09:43:23;;;;;;;6.47;1.77;;;;;;;22.17;42.30;102520.31;4942359;28;20055;-72
2023/05/19 09:45:57;;;;;;;7.00;2.15;;;;;;;22.22;43.16;102517.94;4932901;28;20050;-72
2023/05/19 09:48:26;;;;;;;6.13;1.98;;;;;;;22.25;41.26;102510.44;4974179;28;20058;-72
2023/05/19 09:50:53;;;;;;;7.10;1.60;;;;;;;22.38;41.88;102516.97;4965216;28;20109;-72
2023/05/19 09:53:20;;;;;;;6.45;1.65;;;;;;;22.39;41.50;102514.13;4980967;28;20082;-72
2023/05/19 09:55:48;;;;;;;6.07;1.90;;;;;;;22.41;42.15;102522.78;4969265;28;20566;-73
2023/05/19 09:58:17;;;;;;;6.88;2.10;;;;;;;22.54;42.87;102518.63;4961338;28;20062;-73
2023/05/19 10:00:46;;;;;;;5.95;2.22;;;;;;;22.54;42.77;102519.47;4966006;28;20439;-73
2023/05/19 10:03:13;;;;;;;13.60;4.10;;;;;;;22.58;42.17;102528.78;4955547;28;20055;-73
2023/05/19 10:05:42;;;;;;;7.37;2.10;;;;;;;22.60;41.31;102528.59;4964680;28;20138;-72
2023/05/19 10:08:10;;;;;;;8.35;2.13;;;;;;;22.70;39.67;102519.28;4976115;28;20082;-72
2023/05/19 10:10:37;;;;;;;6.32;1.77;;;;;;;22.89;42.35;102517.03;4960847;28;20470;-73
2023/05/19 10:13:05;;;;;;;7.82;2.47;;;;;;;22.97;41.38;102518.78;4954720;28;20089;-73
2023/05/19 10:15:32;;;;;;;5.25;1.77;;;;;;;22.97;40.94;102516.09;4948541;28;20519;-73
2023/05/19 10:18:10;;;;;;;7.95;1.95;;;;;;;22.94;41.85;102506.59;4965584;28;20051;-72
2023/05/19 10:20:38;;;;;;;;;;;;;;;22.83;41.17;102499.06;4945742;28;20054;-72
2023/05/19 10:23:04;;;;;;;5.80;1.95;;;;;;;22.88;41.80;102502.84;4945730;28;19984;-73
2023/05/19 10:25:32;;;;;;;6.10;1.70;;;;;;;22.94;41.08;102501.25;4947287;28;20113;-72
2023/05/19 10:28:04;;;;;;;6.22;2.15;;;;;;;22.95;41.04;102500.22;4966422;28;20699;-72
2023/05/19 10:30:36;;;;;;;8.55;2.40;;;;;;;23.01;41.17;102504.84;4960626;28;20055;-72
2023/05/19 10:33:06;;;;;;;6.00;1.73;;;;;;;22.93;40.81;102496.09;4962839;28;20550;-72
2023/05/19 10:36:25;;;;;;;5.57;2.13;;;;;;;22.86;40.96;102490.66;4964745;28;20054;-72
2023/05/19 10:39:05;;;;;;;8.82;2.20;;;;;;;22.80;40.69;102492.25;4869057;29;20065;-73
2023/05/19 10:41:44;;;;;;;9.60;2.55;;;;;;;22.81;40.74;102487.72;4858688;29;20672;-72
2023/05/19 10:44:29;;;;;;;5.68;1.85;;;;;;;22.77;40.46;102487.25;4926312;28;20062;-72
2023/05/19 10:46:56;;;;;;;8.75;2.40;;;;;;;22.75;40.98;102477.78;4957958;28;20499;-72
2023/05/19 10:49:23;;;;;;;8.07;2.00;;;;;;;22.84;41.22;102485.50;4939321;28;20090;-72
2023/05/19 10:51:51;;;;;;;8.93;3.28;;;;;;;22.99;40.35;102484.63;4945140;28;20046;-72
2023/05/19 10:54:39;;;;;;;6.63;2.30;;;;;;;23.06;40.15;102489.06;4951496;28;20640;-72
2023/05/19 10:57:07;;;;;;;9.35;2.45;;;;;;;23.29;40.84;102477.38;4968960;28;20058;-72
2023/05/19 10:59:36;;;;;;;9.07;2.08;;;;;;;23.30;39.77;102476.34;4939180;28;20062;-72
2023/05/19 11:02:04;;;;;;;7.85;2.00;;;;;;;23.35;39.68;102481.13;4964688;28;20139;-72
2023/05/19 11:04:51;;;;;;;;;;;;;;;23.57;39.58;102480.09;4948867;28;20391;-73
2023/05/19 11:07:19;;;;;;;3.97;1.70;;;;;;;23.87;40.17;102474.59;4938586;28;19926;-73
2023/05/19 11:09:50;;;;;;;3.85;1.80;;;;;;;24.07;39.41;102472.88;4952954;28;20114;-72
2023/05/19 11:12:21;;;;;;;6.60;2.03;;;;;;;24.17;39.63;102463.63;4934396;28;20113;-73
2023/05/19 11:14:54;;;;;;;8.45;2.30;;;;;;;24.38;38.32;102460.06;4947434;28;20102;-72
2023/05/19 11:17:23;;;;;;;10.38;1.98;;;;;;;24.50;40.94;102473.72;4942046;28;20055;-73
2023/05/19 11:19:54;;;;;;;7.40;2.10;;;;;;;24.61;37.42;102457.91;4953389;28;20173;-72
2023/05/19 11:22:27;;;;;;;5.43;2.03;;;;;;;24.64;37.06;102472.81;4935037;28;20047;-73
2023/05/19 11:24:54;;;;;;;5.38;1.90;;;;;;;24.73;37.33;102460.84;4969289;28;20058;-72
2023/05/19 11:27:23;;;;;;;7.18;2.20;;;;;;;24.78;37.73;102465.63;4970861;28;20472;-72